KEBS/EBS METAR and TAF weather

Enter ICAO airport designator
Station Type Date Time Source
KEBS METAR 2018/10/16 20:15 UTC NOAA

KEBS 162015Z AUTO 29015KT 10SM FEW060 FEW070 18/02 A3005 RMK AO2


Station Type Date Time Source
KEBS Decoded METAR 2018/10/16 20:15 UTC NOAA

Webster City, IA, United States (KEBS) 42-26N 093-52W
Oct 16, 2018 - 04:15 PM EDT / 2018.10.16 2015 UTC
Wind: from the WNW (290 degrees) at 17 MPH (15 KT):0
Visibility: 10 mile(s):0
Sky conditions: mostly clear
Temperature: 64 F (18 C)
Dew Point: 35 F (2 C)
Relative Humidity: 34%
Pressure (altimeter): 30.05 in. Hg (1017 hPa)
ob: KEBS 162015Z AUTO 29015KT 10SM FEW060 FEW070 18/02 A3005 RMK AO2
cycle: 20

Station Type Date Time Source
KEBS TAF UTC NOAA

Error!


Example: see airport list